Time;durP1;ratioP1;P1;durP2;ratioP2;P2;SDS_P1;SDS_P2;PMS_P1;PMS_P2;Temp;Humidity;BMP_temperature;BMP_pressure;BME280_temperature;BME280_humidity;BME280_pressure;Samples;Min_cycle;Max_cycle;Signal;HPM_P1;HPM_P2
2022/12/21 00:01:41;;;;;;;215.93;102.60;;;0.10;99.90;;;;;;5053920;28;20072;-72
2022/12/21 00:04:08;;;;;;;228.80;103.80;;;0.10;99.90;;;;;;5054202;28;20369;-71
2022/12/21 00:06:36;;;;;;;209.57;100.90;;;0.10;99.90;;;;;;5049881;28;20488;-71
2022/12/21 00:09:04;;;;;;;245.52;109.18;;;0.10;99.90;;;;;;5054689;28;20028;-71
2022/12/21 00:11:32;;;;;;;338.77;130.13;;;0.10;99.90;;;;;;5054701;28;20439;-71
2022/12/21 00:13:59;;;;;;;235.07;108.25;;;0.00;99.90;;;;;;5054620;28;20116;-71
2022/12/21 00:16:28;;;;;;;247.27;111.28;;;0.00;99.90;;;;;;5025132;28;20033;-70
2022/12/21 00:18:55;;;;;;;279.92;119.18;;;-0.10;99.90;;;;;;5054934;28;20096;-71
2022/12/21 00:21:23;;;;;;;273.13;119.57;;;-0.10;99.90;;;;;;5028844;28;20053;-70
2022/12/21 00:23:51;;;;;;;216.15;105.30;;;-0.10;99.90;;;;;;5051004;28;20400;-70
2022/12/21 00:26:21;;;;;;;235.38;106.70;;;0.00;99.90;;;;;;5044751;28;20037;-69
2022/12/21 00:28:49;;;;;;;280.27;115.00;;;0.00;99.90;;;;;;5054109;28;20024;-69
2022/12/21 00:31:18;;;;;;;319.35;125.25;;;0.00;99.90;;;;;;5053683;28;20025;-70
2022/12/21 00:33:45;;;;;;;197.43;98.82;;;0.00;99.90;;;;;;5053753;28;20033;-71
2022/12/21 00:36:13;;;;;;;206.30;101.10;;;0.00;99.90;;;;;;5035584;28;20102;-71
2022/12/21 00:38:41;;;;;;;207.57;102.40;;;0.10;99.90;;;;;;5054001;28;20428;-69
2022/12/21 00:41:12;;;;;;;179.95;99.75;;;0.10;99.90;;;;;;5053287;28;20503;-69
2022/12/21 00:43:39;;;;;;;214.02;103.88;;;0.10;99.90;;;;;;5051243;28;20029;-70
2022/12/21 00:46:06;;;;;;;214.20;102.47;;;0.10;99.90;;;;;;5025363;28;20036;-70
2022/12/21 00:48:34;;;;;;;205.50;106.60;;;0.10;99.90;;;;;;5035887;28;20086;-71
2022/12/21 00:51:10;;;;;;;199.50;98.43;;;0.10;99.90;;;;;;5035559;28;20500;-70
2022/12/21 00:53:36;;;;;;;193.35;95.13;;;0.10;99.90;;;;;;5053718;28;20044;-74
2022/12/21 00:56:04;;;;;;;172.88;89.97;;;0.10;99.90;;;;;;5011511;28;20029;-70
2022/12/21 00:58:31;;;;;;;176.18;96.68;;;0.10;99.90;;;;;;5029255;28;20036;-70
2022/12/21 01:00:59;;;;;;;180.65;91.90;;;0.20;99.90;;;;;;5015925;28;20037;-71
2022/12/21 01:03:26;;;;;;;188.05;99.80;;;0.20;99.90;;;;;;5049368;28;20048;-70
2022/12/21 01:05:54;;;;;;;186.80;100.10;;;0.20;99.90;;;;;;5053127;28;20104;-70
2022/12/21 01:08:21;;;;;;;191.48;109.55;;;0.30;99.90;;;;;;5053016;28;20032;-70
2022/12/21 01:10:47;;;;;;;180.32;98.55;;;0.30;99.90;;;;;;5053431;28;20029;-70
2022/12/21 01:13:15;;;;;;;178.13;100.38;;;0.30;99.90;;;;;;5027915;28;20043;-70
2022/12/21 01:15:46;;;;;;;180.90;102.70;;;0.30;99.90;;;;;;5048174;28;20099;-71
2022/12/21 01:18:14;;;;;;;178.48;102.18;;;0.40;99.90;;;;;;5052799;28;20055;-76
2022/12/21 01:20:44;;;;;;;167.40;100.30;;;0.40;99.90;;;;;;5021987;28;20444;-70
2022/12/21 01:23:10;;;;;;;181.05;103.18;;;0.50;99.90;;;;;;5034755;28;20078;-74
2022/12/21 01:25:36;;;;;;;196.70;104.43;;;0.50;99.90;;;;;;5023574;28;20042;-76
2022/12/21 01:28:02;;;;;;;176.13;98.63;;;0.50;99.90;;;;;;5028702;28;20038;-76
2022/12/21 01:30:28;;;;;;;169.30;99.13;;;0.60;99.90;;;;;;5045055;28;20032;-75
2022/12/21 01:32:54;;;;;;;179.20;99.25;;;0.60;99.90;;;;;;5034462;28;20491;-71
2022/12/21 01:35:21;;;;;;;162.50;96.70;;;0.50;99.90;;;;;;5034951;28;20040;-71
2022/12/21 01:37:47;;;;;;;160.55;95.68;;;0.60;99.90;;;;;;5031239;28;20480;-71
2022/12/21 01:40:13;;;;;;;160.65;92.97;;;0.50;99.90;;;;;;5035276;28;20086;-71
2022/12/21 01:42:40;;;;;;;149.48;87.78;;;0.40;99.90;;;;;;5040215;28;20047;-73
2022/12/21 01:45:30;;;;;;;144.32;87.55;;;0.50;99.90;;;;;;5052528;28;20090;-71
2022/12/21 01:48:03;;;;;;;144.13;84.40;;;0.50;99.90;;;;;;5051560;28;20044;-71
2022/12/21 01:50:43;;;;;;;146.02;78.63;;;0.50;99.90;;;;;;5052712;28;20017;-71
2022/12/21 01:53:18;;;;;;;143.25;82.30;;;0.50;99.90;;;;;;5039595;28;20028;-71
2022/12/21 01:55:46;;;;;;;144.60;83.07;;;0.50;99.90;;;;;;5044076;28;20028;-71
2022/12/21 01:58:14;;;;;;;143.07;82.97;;;0.50;99.90;;;;;;5028341;28;20025;-71
2022/12/21 02:00:40;;;;;;;141.73;81.85;;;0.50;99.90;;;;;;5014750;28;20049;-71
2022/12/21 02:03:09;;;;;;;124.57;76.68;;;0.40;99.90;;;;;;5046341;28;20084;-70
2022/12/21 02:06:06;;;;;;;113.45;73.70;;;0.40;99.90;;;;;;5047923;28;20496;-70
2022/12/21 02:08:32;;;;;;;115.07;74.18;;;0.40;99.90;;;;;;5009748;28;20428;-70
2022/12/21 02:11:00;;;;;;;113.53;68.85;;;0.40;99.90;;;;;;5033549;28;20037;-77
2022/12/21 02:13:26;;;;;;;122.03;71.80;;;0.40;99.90;;;;;;5042863;28;20035;-70
2022/12/21 02:16:00;;;;;;;126.38;73.78;;;0.40;99.90;;;;;;5056207;28;20025;-70
2022/12/21 02:19:02;;;;;;;133.93;79.07;;;0.40;99.90;;;;;;5030624;28;20029;-72
2022/12/21 02:22:00;;;;;;;132.82;78.05;;;0.40;99.90;;;;;;5044187;28;20048;-70
2022/12/21 02:24:44;;;;;;;151.93;93.43;;;0.40;99.90;;;;;;5049379;28;20036;-73
2022/12/21 02:27:31;;;;;;;156.60;92.88;;;0.20;99.90;;;;;;5051920;28;20028;-70
2022/12/21 02:30:09;;;;;;;156.30;92.35;;;0.10;99.90;;;;;;5023695;28;20032;-75
2022/12/21 02:33:12;;;;;;;169.40;99.57;;;0.10;99.90;;;;;;5033013;28;20037;-71
2022/12/21 02:35:57;;;;;;;110.22;68.32;;;0.10;99.90;;;;;;5051324;28;20029;-71
2022/12/21 02:38:38;;;;;;;93.88;55.90;;;0.20;99.90;;;;;;5022503;28;20033;-71
2022/12/21 02:41:07;;;;;;;84.40;55.97;;;0.10;99.90;;;;;;5021481;28;20036;-75
2022/12/21 02:46:54;;;;;;;82.50;52.55;;;0.10;99.90;;;;;;5033335;28;20037;-71
2022/12/21 02:49:44;;;;;;;77.47;48.67;;;0.10;99.90;;;;;;5036691;28;20502;-71
2022/12/21 02:52:34;;;;;;;78.43;49.72;;;0.10;99.90;;;;;;5034467;28;20060;-71
2022/12/21 02:55:00;;;;;;;80.03;49.42;;;0.10;99.90;;;;;;5034135;28;20040;-70
2022/12/21 02:57:33;;;;;;;87.40;52.00;;;0.10;99.90;;;;;;5033360;28;20079;-71
2022/12/21 03:00:01;;;;;;;78.18;49.67;;;0.20;99.90;;;;;;5037161;28;20037;-73
2022/12/21 03:02:48;;;;;;;89.70;52.78;;;0.30;99.90;;;;;;5037577;28;20029;-71
2022/12/21 03:05:15;;;;;;;83.43;52.15;;;0.20;99.90;;;;;;5037791;28;20381;-74
2022/12/21 03:07:50;;;;;;;79.07;50.67;;;0.00;99.90;;;;;;5037327;28;20109;-70
2022/12/21 03:10:42;;;;;;;85.07;53.90;;;-0.10;99.90;;;;;;5026474;28;20132;-77
2022/12/21 03:13:08;;;;;;;93.32;59.15;;;-0.10;99.90;;;;;;5037481;28;20056;-72
2022/12/21 03:16:06;;;;;;;103.90;65.03;;;0.00;99.90;;;;;;5037794;28;20063;-78
2022/12/21 03:18:49;;;;;;;105.50;64.68;;;-0.10;99.90;;;;;;5045175;28;20032;-71
2022/12/21 03:21:23;;;;;;;103.97;64.03;;;-0.20;99.90;;;;;;5037286;28;20402;-72
2022/12/21 03:24:06;;;;;;;93.32;60.75;;;-0.20;99.90;;;;;;5054983;28;20415;-72
2022/12/21 03:26:32;;;;;;;;;;;-0.20;99.90;;;;;;5031958;28;20104;-71
2022/12/21 03:29:02;;;;;;;107.70;66.35;;;-0.20;99.90;;;;;;5048038;28;19905;-77
2022/12/21 03:31:35;;;;;;;102.55;62.38;;;-0.20;99.90;;;;;;5042525;28;20036;-74
2022/12/21 03:34:07;;;;;;;93.47;60.78;;;-0.30;99.90;;;;;;5035066;28;20034;-72
2022/12/21 03:36:50;;;;;;;101.43;62.03;;;-0.20;99.90;;;;;;5036233;28;20064;-77
2022/12/21 03:39:21;;;;;;;98.95;60.30;;;-0.10;99.90;;;;;;5041541;28;20048;-71
2022/12/21 03:41:53;;;;;;;97.13;64.63;;;-0.10;99.90;;;;;;5032931;28;20033;-71
2022/12/21 03:44:25;;;;;;;95.43;59.55;;;0.00;99.90;;;;;;5035339;28;20075;-72
2022/12/21 03:46:59;;;;;;;116.38;70.05;;;0.00;99.90;;;;;;5027806;28;20021;-73
2022/12/21 03:49:33;;;;;;;107.88;67.32;;;0.00;99.90;;;;;;5054713;28;20027;-69
2022/12/21 03:52:08;;;;;;;97.68;60.72;;;-0.10;99.90;;;;;;5025467;28;20052;-71
2022/12/21 03:54:49;;;;;;;86.75;55.95;;;-0.10;99.90;;;;;;5049124;28;20029;-71
2022/12/21 03:57:16;;;;;;;88.45;54.17;;;0.00;99.90;;;;;;5038544;28;20044;-70
2022/12/21 03:59:51;;;;;;;96.63;58.47;;;-0.20;99.90;;;;;;5036139;28;20017;-72
2022/12/21 04:02:36;;;;;;;102.53;60.08;;;-0.20;99.90;;;;;;5031727;28;20488;-71
2022/12/21 04:05:10;;;;;;;92.97;61.72;;;-0.30;99.90;;;;;;5033619;28;20029;-73
2022/12/21 04:07:39;;;;;;;111.43;67.80;;;-0.30;99.90;;;;;;5036704;28;20032;-73
2022/12/21 04:10:09;;;;;;;101.25;63.00;;;-0.50;99.90;;;;;;5033372;28;20029;-77
2022/12/21 04:12:38;;;;;;;107.18;66.97;;;-0.50;99.90;;;;;;5032558;28;20358;-70
2022/12/21 04:15:11;;;;;;;105.95;64.88;;;-0.50;99.90;;;;;;5034312;28;20560;-70
2022/12/21 04:17:39;;;;;;;108.60;66.80;;;-0.50;99.90;;;;;;5041927;28;20021;-76
2022/12/21 04:20:07;;;;;;;100.82;60.25;;;-0.40;99.90;;;;;;5052668;28;20457;-74
2022/12/21 04:28:32;;;;;;;109.15;67.78;;;-0.20;99.90;;;;;;5053937;28;20126;-73
2022/12/21 04:30:59;;;;;;;111.20;65.78;;;-0.10;99.90;;;;;;5049372;28;20439;-73
2022/12/21 04:33:27;;;;;;;112.93;69.10;;;-0.20;99.90;;;;;;5051012;28;20110;-77
2022/12/21 04:38:40;;;;;;;103.82;67.03;;;-0.20;99.90;;;;;;5048318;28;20089;-78
2022/12/21 04:41:07;;;;;;;104.35;69.05;;;-0.20;99.90;;;;;;5046629;28;20029;-71
2022/12/21 04:43:36;;;;;;;103.10;62.33;;;-0.10;99.90;;;;;;5044862;28;20123;-72
2022/12/21 04:46:07;;;;;;;102.20;62.00;;;-0.10;99.90;;;;;;5053850;28;20033;-71
2022/12/21 04:48:33;;;;;;;115.30;64.72;;;0.00;99.90;;;;;;5034466;28;20033;-73
2022/12/21 04:51:08;;;;;;;101.57;67.13;;;0.00;99.90;;;;;;5046044;28;20112;-72
2022/12/21 04:53:34;;;;;;;123.82;77.68;;;0.00;99.90;;;;;;5042780;28;20504;-72
2022/12/21 04:56:00;;;;;;;99.70;63.92;;;0.00;99.90;;;;;;5043319;28;20389;-74
2022/12/21 04:58:26;;;;;;;98.82;62.05;;;0.00;99.90;;;;;;5044596;28;20151;-74
2022/12/21 05:00:52;;;;;;;117.05;76.15;;;-0.20;99.90;;;;;;5053104;28;20120;-72
2022/12/21 05:03:19;;;;;;;121.25;74.30;;;-0.30;99.90;;;;;;5053502;28;20033;-71
2022/12/21 05:05:46;;;;;;;118.28;77.05;;;-0.30;99.90;;;;;;5053704;28;20067;-74
2022/12/21 05:08:12;;;;;;;120.13;76.65;;;-0.30;99.90;;;;;;5053377;28;20428;-76
2022/12/21 05:10:39;;;;;;;119.53;78.50;;;-0.30;99.90;;;;;;5053676;28;20108;-73
2022/12/21 05:13:04;;;;;;;121.70;76.03;;;-0.50;99.90;;;;;;5052741;28;20045;-72
2022/12/21 05:15:30;;;;;;;167.43;106.88;;;-0.50;99.90;;;;;;5046786;28;20452;-74
2022/12/21 05:17:57;;;;;;;124.22;76.13;;;-0.50;99.90;;;;;;5035257;28;20029;-70
2022/12/21 05:20:23;;;;;;;98.85;66.03;;;-0.60;99.90;;;;;;5049895;28;20103;-70
2022/12/21 05:22:49;;;;;;;95.10;59.83;;;-0.50;99.90;;;;;;5044910;28;20037;-73
2022/12/21 05:25:14;;;;;;;106.65;67.65;;;-0.50;99.90;;;;;;5041706;28;20464;-70
2022/12/21 05:27:40;;;;;;;93.97;59.30;;;-0.50;99.90;;;;;;5041910;28;20028;-71
2022/12/21 05:30:07;;;;;;;98.80;65.60;;;-0.50;99.90;;;;;;5039599;28;20025;-70
2022/12/21 05:32:33;;;;;;;118.32;75.53;;;-0.50;99.90;;;;;;5052844;28;20029;-72
2022/12/21 05:34:59;;;;;;;111.60;70.70;;;-0.50;99.90;;;;;;5052850;28;20507;-71
2022/12/21 05:37:26;;;;;;;93.25;60.85;;;-0.50;99.90;;;;;;5052702;28;20023;-71
2022/12/21 05:39:53;;;;;;;95.13;63.55;;;-0.40;99.90;;;;;;5052559;28;20063;-71
2022/12/21 05:42:19;;;;;;;117.90;77.72;;;-0.40;99.90;;;;;;5053048;28;20107;-70
2022/12/21 05:44:44;;;;;;;208.13;121.88;;;-0.40;99.90;;;;;;5052008;28;20024;-72
2022/12/21 05:47:10;;;;;;;215.40;123.70;;;-0.40;99.90;;;;;;5052489;28;20062;-71
2022/12/21 05:49:36;;;;;;;214.73;126.00;;;-0.40;99.90;;;;;;5052444;28;20044;-74
2022/12/21 05:52:02;;;;;;;124.55;76.70;;;-0.40;99.90;;;;;;5052431;28;20369;-74
2022/12/21 05:54:28;;;;;;;125.35;78.55;;;-0.50;99.90;;;;;;5047890;28;20018;-77
2022/12/21 05:56:54;;;;;;;103.47;64.10;;;-0.40;99.90;;;;;;5044432;28;20047;-76
2022/12/21 05:59:20;;;;;;;90.45;59.55;;;-0.40;99.90;;;;;;5052607;28;20028;-74
2022/12/21 06:01:45;;;;;;;86.38;57.05;;;-0.40;99.90;;;;;;5040331;28;20064;-74
2022/12/21 06:04:12;;;;;;;83.90;53.63;;;-0.40;99.90;;;;;;5051190;28;20025;-76
2022/12/21 06:06:38;;;;;;;78.78;52.63;;;-0.40;99.90;;;;;;5051735;28;20062;-71
2022/12/21 06:09:03;;;;;;;119.30;75.03;;;-0.40;99.90;;;;;;5052088;28;20052;-71
2022/12/21 06:11:32;;;;;;;108.28;70.05;;;-0.40;99.90;;;;;;5051868;28;20480;-71
2022/12/21 06:13:58;;;;;;;87.15;54.85;;;-0.40;99.90;;;;;;5052072;28;20056;-71
2022/12/21 06:16:26;;;;;;;85.97;52.40;;;-0.50;99.90;;;;;;5023684;28;20564;-71
2022/12/21 06:18:53;;;;;;;85.90;55.25;;;-0.50;99.90;;;;;;5034204;28;20388;-71
2022/12/21 06:21:20;;;;;;;120.78;69.32;;;-0.40;99.90;;;;;;5051804;28;20055;-73
2022/12/21 06:23:46;;;;;;;93.53;60.13;;;-0.40;99.90;;;;;;5051848;28;20530;-74
2022/12/21 06:26:18;;;;;;;117.00;82.13;;;-0.30;99.90;;;;;;5051709;28;20025;-71
2022/12/21 06:28:49;;;;;;;121.20;83.55;;;-0.40;99.90;;;;;;5044633;28;20456;-71
2022/12/21 06:31:15;;;;;;;104.10;68.63;;;-0.30;99.90;;;;;;5038696;28;20376;-76
2022/12/21 06:33:41;;;;;;;93.65;63.33;;;-0.30;99.90;;;;;;5033676;28;20396;-71
2022/12/21 06:36:08;;;;;;;105.85;69.00;;;-0.20;99.90;;;;;;5051619;28;20108;-71
2022/12/21 06:38:34;;;;;;;93.45;60.92;;;-0.30;99.90;;;;;;5038343;28;20025;-74
2022/12/21 06:41:03;;;;;;;91.78;57.72;;;-0.30;99.90;;;;;;5051728;28;20102;-72
2022/12/21 06:43:31;;;;;;;86.13;57.63;;;-0.30;99.90;;;;;;5051410;28;20032;-71
2022/12/21 06:45:59;;;;;;;80.50;56.83;;;-0.30;99.90;;;;;;5051910;28;20090;-72
2022/12/21 06:48:26;;;;;;;87.07;59.67;;;-0.10;99.90;;;;;;5051265;28;20477;-77
2022/12/21 06:50:56;;;;;;;91.13;56.47;;;0.00;99.90;;;;;;5051929;28;20104;-71
2022/12/21 06:53:27;;;;;;;125.93;78.40;;;0.10;99.90;;;;;;5051264;28;20383;-71
2022/12/21 06:56:07;;;;;;;122.35;76.70;;;0.20;99.90;;;;;;5051958;28;20040;-72
2022/12/21 06:58:33;;;;;;;130.45;74.65;;;0.30;99.90;;;;;;5051318;28;20108;-73
2022/12/21 07:01:07;;;;;;;95.45;64.05;;;0.40;99.90;;;;;;5051794;28;20036;-73
2022/12/21 07:03:33;;;;;;;92.68;57.65;;;0.40;99.90;;;;;;5051591;28;20033;-71
2022/12/21 07:06:00;;;;;;;100.85;63.35;;;0.40;99.90;;;;;;5050501;28;20349;-72
2022/12/21 07:08:26;;;;;;;93.20;56.72;;;0.50;99.90;;;;;;5051577;28;20037;-72
2022/12/21 07:10:59;;;;;;;110.70;67.72;;;0.50;99.90;;;;;;5051632;28;20025;-72
2022/12/21 07:13:26;;;;;;;107.95;66.68;;;0.50;99.90;;;;;;5051837;28;20040;-71
2022/12/21 07:15:53;;;;;;;132.30;80.13;;;0.60;99.90;;;;;;5050909;28;20017;-72
2022/12/21 07:18:19;;;;;;;93.63;62.15;;;0.50;99.90;;;;;;5051649;28;20522;-72
2022/12/21 07:20:45;;;;;;;107.85;67.05;;;0.50;99.90;;;;;;5051203;28;20037;-71
2022/12/21 07:23:11;;;;;;;104.18;64.95;;;0.50;99.90;;;;;;5051204;28;20032;-72
2022/12/21 07:25:37;;;;;;;111.93;72.22;;;0.60;99.90;;;;;;5049998;28;20020;-72
2022/12/21 07:28:03;;;;;;;92.78;56.90;;;0.60;99.90;;;;;;5051285;28;20029;-75
2022/12/21 07:30:29;;;;;;;93.22;54.38;;;0.70;99.90;;;;;;5051526;28;20029;-73
2022/12/21 07:32:55;;;;;;;79.82;52.13;;;0.80;99.90;;;;;;5051309;28;20064;-73
2022/12/21 07:35:24;;;;;;;79.72;51.55;;;0.70;99.90;;;;;;5051723;28;20025;-72
2022/12/21 07:37:51;;;;;;;84.88;55.55;;;0.70;99.90;;;;;;5050175;28;20375;-73
2022/12/21 07:40:17;;;;;;;73.03;46.35;;;0.80;99.90;;;;;;5051343;28;20140;-71
2022/12/21 07:42:44;;;;;;;72.75;46.75;;;1.00;99.90;;;;;;5050881;28;20025;-72
2022/12/21 07:45:20;;;;;;;86.95;53.33;;;0.90;99.90;;;;;;5031616;28;20089;-71
2022/12/21 07:47:48;;;;;;;85.78;54.28;;;1.00;99.90;;;;;;5037328;28;20021;-71
2022/12/21 07:50:14;;;;;;;93.05;60.08;;;1.10;99.90;;;;;;5054536;28;20530;-71
2022/12/21 07:52:40;;;;;;;86.90;52.15;;;1.30;99.90;;;;;;5054848;28;20036;-71
2022/12/21 07:55:06;;;;;;;92.65;58.47;;;1.50;99.90;;;;;;5052310;28;20021;-71
2022/12/21 07:57:32;;;;;;;83.93;53.35;;;1.60;99.90;;;;;;5054805;28;20037;-71
2022/12/21 07:59:58;;;;;;;88.45;56.85;;;1.70;99.90;;;;;;5047111;28;20036;-73
2022/12/21 08:02:24;;;;;;;81.88;51.60;;;1.80;99.90;;;;;;5049145;28;20029;-71
2022/12/21 08:04:49;;;;;;;82.13;49.42;;;2.00;99.90;;;;;;5054536;28;20014;-71
2022/12/21 08:07:15;;;;;;;81.70;53.80;;;2.20;99.90;;;;;;5053984;28;20371;-73
2022/12/21 08:09:41;;;;;;;79.68;49.80;;;2.20;99.90;;;;;;5054324;28;20032;-72
2022/12/21 08:12:07;;;;;;;79.40;48.63;;;2.30;99.90;;;;;;5054391;28;20028;-71
2022/12/21 08:14:33;;;;;;;76.32;48.85;;;2.30;99.90;;;;;;5054675;28;20025;-73
2022/12/21 08:16:59;;;;;;;75.95;50.63;;;1.90;99.90;;;;;;5053678;28;20107;-72
2022/12/21 08:19:25;;;;;;;73.88;48.28;;;2.00;99.90;;;;;;5054463;28;20104;-72
2022/12/21 08:21:51;;;;;;;77.60;48.60;;;2.20;99.90;;;;;;5053966;28;20203;-73
2022/12/21 08:24:17;;;;;;;86.65;52.22;;;2.40;99.90;;;;;;5054503;28;20063;-71
2022/12/21 08:26:42;;;;;;;75.45;50.33;;;2.50;99.90;;;;;;5054123;28;20066;-74
2022/12/21 08:29:13;;;;;;;85.15;54.42;;;2.40;99.90;;;;;;5054037;28;20096;-73
2022/12/21 08:31:40;;;;;;;81.55;51.72;;;2.60;99.90;;;;;;5053876;28;20025;-73
2022/12/21 08:34:06;;;;;;;76.30;49.85;;;2.60;99.90;;;;;;5054052;28;20017;-73
2022/12/21 08:36:32;;;;;;;82.75;55.35;;;2.90;99.90;;;;;;5053140;28;20100;-73
2022/12/21 08:38:58;;;;;;;81.65;49.45;;;3.00;99.90;;;;;;5046908;28;20480;-73
2022/12/21 08:41:24;;;;;;;79.68;54.85;;;3.00;99.90;;;;;;5049825;28;20041;-72
2022/12/21 08:43:50;;;;;;;87.90;54.60;;;3.00;99.90;;;;;;5053805;28;20107;-74
2022/12/21 08:46:16;;;;;;;79.13;52.17;;;3.10;99.90;;;;;;5054032;28;20132;-71
2022/12/21 08:48:41;;;;;;;83.03;53.08;;;3.20;99.90;;;;;;5052968;28;20017;-72
2022/12/21 08:51:08;;;;;;;78.18;53.60;;;3.50;99.90;;;;;;5044035;28;20489;-72
2022/12/21 08:53:35;;;;;;;79.85;50.08;;;3.50;99.90;;;;;;5053611;28;20025;-72
2022/12/21 08:56:01;;;;;;;81.68;50.92;;;3.60;99.90;;;;;;5052768;28;20029;-72
2022/12/21 08:58:27;;;;;;;86.95;55.13;;;3.70;99.90;;;;;;5027077;28;20465;-73
2022/12/21 09:00:54;;;;;;;85.40;55.33;;;3.90;99.90;;;;;;5047065;28;20033;-72
2022/12/21 09:03:21;;;;;;;93.75;60.50;;;4.00;99.90;;;;;;5043658;28;20047;-72
2022/12/21 09:05:52;;;;;;;89.10;60.95;;;4.10;99.90;;;;;;5053527;28;20060;-71
2022/12/21 09:08:18;;;;;;;86.97;57.50;;;4.20;99.90;;;;;;5053633;28;20040;-71
2022/12/21 09:10:43;;;;;;;89.88;55.65;;;4.30;99.90;;;;;;5052963;28;20017;-72
2022/12/21 09:13:09;;;;;;;86.13;54.63;;;4.40;99.90;;;;;;5052419;28;20176;-71
2022/12/21 09:15:41;;;;;;;83.97;55.83;;;4.50;99.90;;;;;;5040061;28;20017;-72
2022/12/21 09:18:11;;;;;;;85.03;55.85;;;4.40;99.90;;;;;;5053252;28;20060;-73
2022/12/21 09:20:37;;;;;;;93.03;55.28;;;4.30;99.90;;;;;;5052951;28;20112;-71
2022/12/21 09:23:03;;;;;;;85.22;50.25;;;4.60;99.90;;;;;;5052664;28;20052;-72
2022/12/21 09:25:29;;;;;;;80.50;49.50;;;4.70;99.90;;;;;;5053413;28;20041;-72
2022/12/21 09:27:58;;;;;;;80.53;49.53;;;4.80;99.90;;;;;;5053063;28;20162;-72
2022/12/21 09:30:24;;;;;;;80.47;54.17;;;4.90;99.90;;;;;;5052667;28;20036;-72
2022/12/21 09:32:49;;;;;;;82.22;54.03;;;5.10;99.90;;;;;;5042321;28;20025;-74
2022/12/21 09:35:15;;;;;;;90.05;56.03;;;5.20;99.90;;;;;;5050217;28;20033;-73
2022/12/21 09:37:41;;;;;;;78.50;52.72;;;5.40;99.90;;;;;;5050857;28;20049;-74
2022/12/21 09:40:11;;;;;;;80.30;50.25;;;5.50;99.90;;;;;;5052954;28;20044;-72
2022/12/21 09:42:54;;;;;;;80.60;52.22;;;5.20;99.90;;;;;;5053081;28;20380;-72
2022/12/21 09:45:23;;;;;;;91.90;57.58;;;5.40;99.90;;;;;;5040221;28;20159;-72
2022/12/21 09:48:02;;;;;;;88.15;55.47;;;5.20;99.90;;;;;;5052281;28;20402;-72
2022/12/21 09:50:44;;;;;;;80.03;52.28;;;5.20;99.90;;;;;;5052814;28;20025;-73
2022/12/21 09:53:19;;;;;;;86.03;58.65;;;5.20;99.90;;;;;;5034345;28;20108;-74
2022/12/21 09:55:49;;;;;;;87.10;56.13;;;5.40;99.90;;;;;;5052655;28;20033;-72
2022/12/21 09:58:21;;;;;;;91.15;55.20;;;5.30;99.90;;;;;;5049998;28;20484;-72
2022/12/21 10:00:51;;;;;;;84.38;53.78;;;5.50;99.90;;;;;;5051487;28;20037;-73
2022/12/21 10:03:29;;;;;;;84.30;52.75;;;5.40;99.90;;;;;;5052550;28;20033;-72
2022/12/21 10:06:10;;;;;;;87.90;57.30;;;5.50;99.90;;;;;;5052367;28;20029;-72
2022/12/21 10:08:59;;;;;;;86.65;56.45;;;5.70;99.90;;;;;;5051099;28;20029;-75
2022/12/21 10:11:41;;;;;;;90.90;57.95;;;5.80;99.90;;;;;;5045621;28;20127;-72
2022/12/21 10:14:35;;;;;;;90.63;58.33;;;5.90;99.90;;;;;;5040071;28;20394;-72
2022/12/21 10:17:20;;;;;;;99.07;58.53;;;5.80;99.90;;;;;;5034668;28;20033;-72
2022/12/21 10:20:04;;;;;;;93.45;58.20;;;6.00;99.90;;;;;;5050092;28;20112;-75
2022/12/21 10:22:35;;;;;;;88.60;57.53;;;6.00;99.90;;;;;;5052201;28;20053;-72
2022/12/21 10:25:11;;;;;;;98.05;60.72;;;6.20;99.90;;;;;;5051985;28;20028;-71
2022/12/21 10:27:45;;;;;;;86.18;58.40;;;6.40;99.90;;;;;;5051955;28;20025;-74
2022/12/21 10:30:14;;;;;;;75.93;52.00;;;6.40;99.90;;;;;;5035986;28;20025;-74
2022/12/21 10:32:40;;;;;;;83.35;51.97;;;6.30;99.90;;;;;;5044259;28;20535;-73
2022/12/21 10:35:18;;;;;;;85.57;56.88;;;6.30;99.90;;;;;;5051958;28;20027;-72
2022/12/21 10:37:50;;;;;;;70.68;48.20;;;6.30;99.90;;;;;;5051946;28;20029;-72
2022/12/21 10:40:17;;;;;;;82.07;50.92;;;6.20;99.90;;;;;;5051778;28;20033;-73
2022/12/21 10:42:49;;;;;;;78.22;50.90;;;6.20;99.90;;;;;;5050414;28;20024;-72
2022/12/21 10:45:16;;;;;;;79.47;51.78;;;6.10;99.90;;;;;;5051830;28;20043;-72
2022/12/21 10:47:44;;;;;;;75.53;49.92;;;6.20;99.90;;;;;;5051822;28;20051;-76
2022/12/21 10:50:26;;;;;;;87.18;51.58;;;6.10;99.90;;;;;;5051765;28;20120;-75
2022/12/21 10:52:54;;;;;;;74.70;50.40;;;6.20;99.90;;;;;;5050630;28;20033;-72
2022/12/21 10:55:25;;;;;;;71.35;48.72;;;6.20;99.90;;;;;;5051855;28;20071;-72
2022/12/21 10:58:02;;;;;;;83.13;51.28;;;6.10;99.90;;;;;;5051745;28;20037;-73
2022/12/21 11:00:47;;;;;;;80.22;50.20;;;6.20;99.90;;;;;;5051785;28;20452;-74
2022/12/21 11:03:36;;;;;;;77.30;53.33;;;6.30;99.90;;;;;;5041735;28;20030;-72
2022/12/21 11:06:19;;;;;;;79.72;53.63;;;6.30;99.90;;;;;;5038129;28;20025;-71
2022/12/21 11:08:47;;;;;;;77.03;53.03;;;6.50;99.90;;;;;;5051328;28;20029;-72
2022/12/21 11:11:28;;;;;;;78.00;53.70;;;6.50;99.90;;;;;;5051324;28;20025;-74
2022/12/21 11:14:01;;;;;;;79.13;51.50;;;6.70;99.90;;;;;;5038251;28;20037;-72
2022/12/21 11:16:30;;;;;;;79.55;53.58;;;6.70;99.90;;;;;;5051770;28;20029;-72
2022/12/21 11:19:03;;;;;;;80.20;53.65;;;6.80;99.90;;;;;;5051262;28;20028;-71
2022/12/21 11:21:32;;;;;;;90.18;56.50;;;7.00;99.90;;;;;;5054908;28;20064;-73
2022/12/21 11:24:17;;;;;;;76.97;52.33;;;7.20;99.90;;;;;;5055455;28;20017;-76
2022/12/21 11:26:55;;;;;;;82.05;52.60;;;7.30;99.90;;;;;;5054934;28;20052;-72
2022/12/21 11:29:30;;;;;;;82.88;56.20;;;7.30;99.90;;;;;;5053366;28;20037;-76
2022/12/21 11:32:06;;;;;;;89.93;58.03;;;7.30;99.90;;;;;;5055558;28;20017;-72
2022/12/21 11:34:45;;;;;;;91.68;57.28;;;7.30;99.90;;;;;;5055276;28;20047;-71
2022/12/21 11:37:36;;;;;;;97.13;58.97;;;7.40;99.90;;;;;;5054139;28;20028;-72
2022/12/21 11:40:11;;;;;;;95.72;64.45;;;7.50;99.90;;;;;;5043887;28;20017;-73
2022/12/21 11:43:00;;;;;;;106.68;71.70;;;7.60;99.90;;;;;;5053114;28;20158;-74
2022/12/21 11:45:32;;;;;;;102.10;66.60;;;7.60;99.90;;;;;;5027584;28;20048;-71
2022/12/21 11:48:42;;;;;;;96.63;62.20;;;7.70;99.90;;;;;;5030761;28;20076;-72
2022/12/21 11:51:23;;;;;;;92.72;60.65;;;7.70;99.90;;;;;;5019250;28;20029;-72
2022/12/21 11:54:09;;;;;;;97.40;61.75;;;7.60;99.90;;;;;;5044704;28;20451;-72
2022/12/21 11:56:43;;;;;;;90.43;59.97;;;7.60;99.90;;;;;;5052142;28;20100;-72
2022/12/21 11:59:43;;;;;;;78.07;52.10;;;7.70;99.90;;;;;;5044456;28;20056;-74
2022/12/21 12:02:52;;;;;;;83.47;58.30;;;7.80;99.90;;;;;;5051958;28;20036;-72
2022/12/21 12:05:33;;;;;;;99.65;64.00;;;7.90;99.90;;;;;;5052179;28;20029;-72
2022/12/21 12:08:18;;;;;;;90.85;61.05;;;7.90;99.90;;;;;;5049661;28;20058;-71
2022/12/21 12:10:53;;;;;;;61.63;42.58;;;8.10;99.90;;;;;;5035390;28;20420;-72
2022/12/21 12:13:35;;;;;;;64.85;42.10;;;8.00;99.90;;;;;;5050694;28;20413;-74
2022/12/21 12:16:10;;;;;;;72.38;47.72;;;7.90;99.90;;;;;;5049967;28;20028;-76
2022/12/21 12:19:18;;;;;;;68.43;44.28;;;7.90;99.90;;;;;;5049699;28;20091;-73
2022/12/21 12:22:02;;;;;;;75.55;48.70;;;8.00;99.90;;;;;;5052390;28;20061;-77
2022/12/21 12:25:03;;;;;;;82.10;49.83;;;8.10;99.90;;;;;;5044503;28;20033;-71
2022/12/21 12:27:51;;;;;;;77.82;50.53;;;8.20;99.90;;;;;;5040552;28;20064;-71
2022/12/21 12:30:58;;;;;;;77.90;51.65;;;8.30;99.90;;;;;;5049759;28;20052;-72
2022/12/21 12:33:35;;;;;;;85.65;56.58;;;8.40;99.90;;;;;;5050111;28;20123;-70
2022/12/21 12:36:15;;;;;;;88.05;58.17;;;8.50;99.90;;;;;;5051115;28;20021;-72
2022/12/21 12:38:47;;;;;;;96.13;61.08;;;8.60;99.90;;;;;;5050577;28;20151;-75
2022/12/21 12:41:16;;;;;;;87.20;58.08;;;8.70;99.90;;;;;;5050285;28;20036;-72
2022/12/21 12:44:15;;;;;;;84.75;55.78;;;8.70;99.90;;;;;;5052416;28;20020;-71
2022/12/21 12:47:24;;;;;;;60.83;42.28;;;8.70;99.90;;;;;;5048405;28;20373;-75
2022/12/21 12:50:10;;;;;;;70.07;46.70;;;8.70;99.90;;;;;;4971281;28;20482;-72
2022/12/21 12:52:56;;;;;;;72.40;46.50;;;8.70;99.90;;;;;;4971399;28;20549;-70
2022/12/21 12:55:50;;;;;;;65.97;44.45;;;8.70;99.90;;;;;;4972202;28;20035;-70
2022/12/21 12:58:25;;;;;;;58.95;41.22;;;8.60;99.90;;;;;;4969412;28;20031;-70
2022/12/21 13:01:18;;;;;;;57.72;37.40;;;8.70;99.90;;;;;;4967082;28;20128;-70
2022/12/21 13:04:02;;;;;;;65.13;42.55;;;8.60;99.90;;;;;;4972810;28;20473;-70
2022/12/21 13:06:42;;;;;;;49.38;32.95;;;8.60;99.90;;;;;;4972845;28;20043;-70
2022/12/21 13:09:40;;;;;;;59.10;32.88;;;8.60;99.90;;;;;;4955070;28;20019;-70